Date,TemperatureHighF,TemperatureAvgF,TemperatureLowF,DewpointHighF,DewpointAvgF,DewpointLowF,HumidityHigh,HumidityAvg,HumidityLow,PressureMaxIn,PressureMinIn,WindSpeedMaxMPH,WindSpeedAvgMPH,GustSpeedMaxMPH,PrecipitationSumIn
2014-1-1,51.1,38.2,29.7,32.8,29.0,26.2,93,72,38,30.45,30.17,3,0,6,0.00
2014-1-2,48.0,42.4,36.1,44.1,38.6,31.8,98,87,70,30.18,29.58,2,0,12,0.38
2014-1-3,42.4,29.3,19.3,39.6,17.0,10.5,90,61,38,30.51,29.66,7,1,18,0.00
2014-1-4,37.8,29.3,16.2,28.1,17.5,12.3,92,64,35,30.55,30.31,3,0,7,0.00
2014-1-5,60.3,47.1,36.3,57.3,41.5,26.8,98,81,66,30.31,29.77,5,0,9,0.01
2014-1-6,62.1,46.4,17.7,59.5,38.4,-2.0,98,76,37,30.18,29.63,12,2,18,0.14
2014-1-7,24.3,16.5,8.9,9.7,-0.1,-5.0,76,48,32,30.53,30.18,4,1,10,0.00
2014-1-8,41.9,26.2,11.8,15.7,12.1,8.1,92,59,29,30.65,30.52,3,0,5,0.00
2014-1-9,53.4,37.3,25.5,28.7,19.4,13.9,78,52,22,30.61,30.51,2,0,4,0.00
2014-1-10,51.9,42.4,39.1,51.8,38.8,28.0,100,88,57,30.50,30.09,2,0,4,0.44
2014-1-11,69.1,57.7,47.1,66.6,57.1,46.8,100,98,88,30.10,29.60,12,1,16,0.59
2014-1-12,57.7,47.9,38.8,53.4,38.4,33.3,99,72,40,30.18,29.67,7,0,11,0.01
2014-1-13,61.8,48.8,36.8,42.9,38.0,33.6,89,68,44,30.20,29.97,10,1,14,0.00
2014-1-14,52.8,48.2,40.6,50.7,46.8,40.3,99,95,70,29.99,29.79,4,0,5,0.49
2014-1-15,59.4,45.2,38.3,48.8,40.8,34.2,100,87,51,29.99,29.84,7,0,11,0.01
2014-1-16,43.8,36.3,31.0,36.9,31.9,26.4,98,85,53,30.04,29.94,4,0,5,0.09
2014-1-17,56.2,42.0,28.3,39.1,31.4,25.1,88,68,43,30.05,29.85,8,1,11,0.00
2014-1-18,47.2,33.5,27.1,38.1,20.4,12.3,83,60,37,30.05,29.84,5,1,11,0.00
2014-1-19,53.5,39.6,30.0,29.8,24.6,18.2,70,56,39,30.05,29.90,5,0,13,0.00
2014-1-20,63.9,45.6,34.1,31.2,29.3,26.9,81,57,26,29.93,29.78,4,1,14,0.00
2014-1-21,51.8,39.9,26.1,38.5,32.3,24.3,95,75,55,29.85,29.55,5,0,7,0.00
2014-1-22,29.9,23.7,15.6,24.5,14.8,6.8,95,71,38,30.14,29.85,5,0,7,0.01
2014-1-23,37.2,24.8,12.9,17.6,12.2,3.4,91,62,34,30.48,30.13,6,0,11,0.00
2014-1-24,26.7,18.4,11.3,6.1,1.1,-2.0,64,47,28,30.65,30.28,5,0,8,0.00
2014-1-25,41.0,30.0,17.6,19.4,9.2,0.7,51,41,34,30.29,29.66,10,1,20,0.01
2014-1-26,51.9,38.6,23.0,30.8,20.7,16.2,84,52,25,30.01,29.81,10,1,13,0.00
2014-1-27,65.6,50.6,32.7,39.3,31.3,4.2,61,48,28,30.13,29.78,6,1,14,0.00
2014-1-28,32.6,26.7,17.5,16.9,7.0,0.0,90,47,26,30.34,30.13,5,1,12,0.00
2014-1-29,29.0,21.1,12.7,15.2,11.3,3.6,89,68,35,30.41,30.20,3,0,6,0.00
2014-1-30,38.5,20.7,4.9,13.9,7.4,2.3,91,62,25,30.48,30.27,3,0,5,0.08
2014-1-31,54.5,32.4,13.3,21.6,15.7,10.6,92,56,23,30.27,30.16,3,0,5,0.05
2014-2-1,60.4,42.6,25.7,43.2,27.5,18.0,91,60,23,30.28,30.11,5,0,6,0.00
2014-2-2,65.2,52.1,42.6,49.5,45.5,40.9,98,80,53,30.11,30.03,7,0,10,0.00
2014-2-3,61.7,49.8,40.4,60.6,47.5,37.3,97,92,86,30.29,29.89,5,1,14,0.16
2014-2-4,41.0,39.2,37.2,39.0,36.9,35.1,98,92,84,30.44,30.11,3,0,7,0.40
2014-2-5,51.8,42.8,38.2,49.6,41.6,33.4,99,96,74,30.11,29.80,3,0,7,0.10
2014-2-6,42.7,36.9,28.6,34.8,27.9,24.9,92,71,51,30.35,30.09,5,0,7,0.00
2014-2-7,51.1,39.6,33.4,34.5,31.1,29.2,93,74,46,30.37,30.27,4,0,6,0.00
2014-2-8,49.5,39.0,31.5,33.0,30.8,29.1,92,74,49,30.31,30.14,2,0,4,0.00
2014-2-9,52.8,40.1,29.0,40.0,34.8,28.0,98,83,58,30.21,29.99,6,0,8,0.00
2014-2-10,41.4,36.7,34.3,37.4,33.8,30.3,98,90,65,30.27,30.03,1,0,4,0.07
2014-2-11,34.8,31.0,24.0,34.2,23.4,17.5,98,75,55,30.43,30.27,4,0,8,0.00
2014-2-12,31.4,25.7,23.7,30.6,20.3,14.4,97,81,58,30.46,29.82,5,1,9,0.00
2014-2-13,34.7,33.4,31.6,34.1,32.8,30.8,99,98,97,29.82,29.44,2,0,5,0.05
2014-2-14,60.3,43.6,32.5,36.1,31.5,23.1,97,68,24,29.81,29.66,7,1,13,0.40
2014-2-15,46.1,39.4,30.5,39.9,30.7,18.1,98,73,42,30.07,29.56,10,1,16,0.29
2014-2-16,52.0,38.5,29.4,31.6,26.0,18.9,86,62,40,30.20,30.03,5,0,12,0.00
2014-2-17,46.9,36.7,28.5,29.1,25.2,22.7,92,65,39,30.42,30.20,5,0,9,0.00
2014-2-18,65.5,48.0,35.4,38.3,29.0,18.7,88,55,17,30.23,30.11,5,0,10,0.00
2014-2-19,70.7,57.5,48.7,61.0,52.1,30.9,98,83,49,30.11,29.89,5,1,13,0.33
2014-2-20,69.8,60.2,51.0,62.1,47.9,36.2,90,65,43,30.23,29.99,7,1,19,0.00
2014-2-21,73.5,59.9,40.7,65.2,56.5,40.1,99,89,74,30.04,29.79,13,2,17,0.38
2014-2-22,66.6,47.3,33.9,43.2,34.0,27.7,99,67,24,30.21,30.04,2,0,4,0.01
2014-2-23,69.2,53.7,36.1,43.8,36.9,30.6,85,56,31,30.13,29.89,10,0,11,0.00
2014-2-24,59.9,48.8,34.8,44.9,29.9,17.9,88,52,23,30.17,29.88,5,0,9,0.00
2014-2-25,52.7,39.2,28.4,33.3,25.1,16.6,76,58,35,30.15,29.98,4,0,5,0.00
2014-2-26,49.3,37.8,27.1,31.9,26.3,20.3,81,65,40,30.00,29.81,3,0,6,0.00
2014-2-27,55.2,36.6,21.4,22.3,16.6,10.3,88,50,18,30.05,29.76,6,1,13,0.00
2014-2-28,45.5,34.0,26.4,18.0,14.8,10.9,61,46,28,30.37,30.05,4,0,10,0.00
2014-3-1,55.8,38.8,29.5,36.9,25.9,14.4,86,61,44,30.40,30.24,3,0,5,0.00
2014-3-2,72.2,55.7,33.7,49.0,42.0,32.2,97,64,38,30.26,29.90,9,1,12,0.00
2014-3-3,62.5,38.9,19.7,49.3,34.1,15.9,95,84,62,30.32,29.83,9,1,15,0.32
2014-3-4,38.7,27.4,13.1,19.3,14.1,9.3,89,59,39,30.40,30.24,3,0,8,0.02
2014-3-5,44.5,35.7,28.2,23.4,20.2,14.6,76,54,37,30.33,30.16,3,0,5,0.00
2014-3-6,41.6,35.1,29.4,32.2,25.9,15.9,96,71,49,30.42,30.17,7,1,10,0.51
2014-3-7,36.5,34.1,31.1,35.7,33.3,30.8,99,97,96,30.17,29.91,8,1,12,1.52
2014-3-8,69.1,47.8,28.3,47.2,38.6,28.0,100,75,38,30.10,29.97,4,0,8,0.00
2014-3-9,66.8,53.0,41.3,44.6,40.2,36.0,94,66,34,30.09,29.97,6,0,8,0.00
2014-3-10,74.8,54.5,32.2,40.5,33.0,26.5,98,53,18,30.03,29.80,5,0,10,0.00
2014-3-11,81.6,63.5,44.5,43.8,39.4,33.1,78,45,18,29.81,29.66,8,0,10,0.00
2014-3-12,70.6,61.1,43.6,60.4,50.8,30.9,95,69,56,29.69,29.23,11,2,20,0.36
2014-3-13,45.1,37.6,27.0,32.0,17.0,7.5,72,46,23,30.25,29.60,8,1,16,0.00
2014-3-14,62.8,43.4,23.7,34.5,20.6,14.9,86,47,18,30.36,30.10,11,1,18,0.00
2014-3-15,73.6,59.5,49.8,40.6,38.0,34.5,67,47,25,30.10,29.94,8,1,12,0.00
2014-3-16,56.2,48.4,37.3,43.8,35.8,28.6,96,65,41,30.06,29.88,6,0,9,0.24
2014-3-17,36.9,33.1,31.7,35.8,32.1,30.6,97,96,95,30.01,29.85,8,1,8,0.26
2014-3-18,37.5,33.9,30.6,36.9,33.2,29.8,98,98,96,30.20,29.97,6,0,7,0.07
2014-3-19,47.7,41.2,35.6,46.8,40.6,35.0,99,98,95,30.21,29.99,2,0,5,0.08
2014-3-20,67.7,52.5,42.4,49.6,37.0,24.2,100,64,22,30.05,29.94,5,1,10,0.01
2014-3-21,70.7,51.4,31.7,37.2,31.3,25.8,91,52,23,30.17,30.05,8,1,10,0.00
2014-3-22,76.1,61.0,50.2,45.6,40.6,33.6,78,50,27,30.08,29.92,8,1,15,0.00
2014-3-23,57.5,47.2,36.5,44.7,39.7,35.3,98,78,48,30.16,29.93,7,0,9,0.17
2014-3-24,51.7,38.7,28.7,37.5,27.8,21.0,99,69,31,30.32,30.13,4,0,7,0.00
2014-3-25,47.0,39.5,30.4,39.4,32.6,26.0,97,77,53,30.13,29.77,3,0,7,0.05
2014-3-26,47.6,36.2,28.7,29.5,18.9,10.3,98,54,23,30.36,29.95,10,1,16,0.00
2014-3-27,60.3,42.4,23.0,34.2,21.5,17.4,82,48,23,30.50,30.30,7,1,15,0.00
2014-3-28,69.5,56.6,45.5,60.4,50.4,34.6,98,81,59,30.31,30.12,12,1,12,0.14
2014-3-29,65.7,61.4,57.1,64.3,60.7,56.8,99,98,92,30.14,29.55,5,0,9,0.74
2014-3-30,62.9,48.2,41.6,62.3,40.0,33.2,98,74,57,29.93,29.53,9,1,17,0.14
2014-3-31,74.9,53.9,37.3,37.2,30.4,24.7,75,46,17,30.10,29.93,6,0,11,0.00
2014-4-1,82.7,62.1,43.9,40.3,35.4,29.1,71,41,17,30.16,30.00,5,0,7,0.00
2014-4-2,89.2,70.7,53.9,46.7,40.8,36.9,57,37,17,30.09,29.97,5,0,11,0.00
2014-4-3,79.3,64.1,47.8,57.2,50.1,42.9,89,62,42,30.08,29.91,4,0,7,0.00
2014-4-4,84.9,70.9,59.2,58.6,53.7,44.8,80,57,26,29.89,29.70,13,1,18,0.00
2014-4-5,73.5,62.9,52.0,57.8,42.7,32.5,86,51,24,30.09,29.77,6,1,11,0.00
2014-4-6,62.4,53.3,43.0,41.2,35.2,29.3,66,51,36,30.23,30.08,4,1,9,0.00
2014-4-7,63.3,50.6,42.8,61.8,47.5,32.8,98,91,48,30.13,29.67,7,0,16,1.43
2014-4-8,69.2,62.3,48.5,62.7,54.0,43.7,97,76,43,29.69,29.58,7,1,12,0.00
2014-4-9,70.1,56.7,47.1,49.1,43.8,37.5,94,66,32,30.11,29.68,5,0,8,0.03
2014-4-10,76.4,59.2,39.2,46.5,40.2,35.4,97,57,25,30.29,30.11,6,1,13,0.00
2014-4-11,80.4,67.8,55.9,51.0,46.1,42.9,65,48,27,30.21,30.04,6,1,14,0.00
2014-4-12,83.9,69.5,55.4,54.4,51.7,48.0,85,56,30,30.22,30.11,6,1,10,0.00
2014-4-13,84.3,69.8,57.9,61.8,56.5,53.1,89,65,41,30.22,30.07,10,1,13,0.00
2014-4-14,78.0,68.3,60.2,64.9,60.1,55.6,95,77,53,30.11,29.85,6,1,13,0.02
2014-4-15,70.2,61.3,40.7,67.5,59.0,37.7,97,92,70,30.02,29.60,8,1,13,1.19
2014-4-16,57.1,42.9,30.7,37.9,29.9,24.4,94,64,32,30.49,30.02,7,1,9,0.00
2014-4-17,66.2,47.8,29.9,43.4,35.5,28.9,98,67,34,30.59,30.44,5,0,10,0.00
2014-4-18,64.1,50.0,36.4,49.1,41.3,35.3,97,75,47,30.50,30.26,4,0,7,0.12
2014-4-19,54.1,49.8,45.8,49.4,47.1,44.7,98,91,77,30.26,30.18,4,0,7,0.50
2014-4-20,69.9,57.8,48.0,48.7,42.6,35.2,81,58,45,30.29,30.21,7,1,11,0.00
2014-4-21,78.0,56.0,39.1,45.2,38.0,22.7,86,57,15,30.23,29.94,3,0,6,0.00
2014-4-22,84.9,65.6,47.2,58.0,49.6,39.4,82,59,31,29.94,29.66,5,0,10,0.00
2014-4-23,72.8,61.1,50.2,57.1,42.3,30.3,98,57,22,29.99,29.68,6,1,16,0.00
2014-4-24,73.2,56.4,38.5,46.8,37.8,30.7,92,55,24,30.17,30.00,3,0,6,0.00
2014-4-25,78.1,60.8,50.1,69.5,56.2,40.7,99,86,56,30.02,29.65,5,0,14,1.88
2014-4-26,81.6,64.7,46.6,56.5,49.4,45.3,99,65,29,30.01,29.83,3,0,11,0.01
2014-4-27,86.8,69.2,50.4,58.6,51.4,45.2,93,57,25,30.03,29.92,4,0,6,0.00
2014-4-28,65.5,58.1,52.6,59.8,52.2,43.0,94,81,62,30.03,29.93,4,0,8,0.02
2014-4-29,62.3,56.8,52.2,61.4,55.9,51.3,99,97,94,30.05,29.94,2,0,5,0.10
2014-4-30,78.7,71.2,61.2,74.0,69.2,60.9,100,94,82,30.04,29.89,6,1,14,0.50
2014-5-1,81.1,72.3,65.4,69.1,64.5,59.4,95,79,49,29.90,29.77,9,1,16,0.00
2014-5-2,71.6,61.5,48.8,63.0,49.1,40.7,96,67,37,29.96,29.82,3,0,6,0.00
2014-5-3,78.9,64.3,52.5,55.9,49.8,43.7,94,64,30,29.91,29.84,4,0,9,0.00
2014-5-4,85.3,67.0,47.8,57.5,50.7,44.5,96,62,31,30.00,29.80,8,1,13,0.00
2014-5-5,74.2,62.4,54.9,56.7,52.8,48.6,96,72,50,30.05,29.86,3,0,6,0.00
2014-5-6,84.3,67.0,56.3,63.5,58.4,52.4,91,76,47,30.01,29.87,2,0,4,0.00
2014-5-7,78.2,65.8,55.2,67.8,61.7,54.0,98,87,66,30.15,30.01,5,0,5,0.00
2014-5-8,91.8,74.4,56.8,67.3,60.3,52.8,100,68,27,30.18,30.07,4,0,8,0.00
2014-5-9,90.3,75.1,61.0,68.5,63.0,58.0,97,70,38,30.15,30.01,6,0,9,0.05
2014-5-10,86.8,72.9,63.7,71.9,65.3,58.5,98,79,54,30.11,29.98,6,0,14,0.00
2014-5-11,88.6,72.3,60.7,67.7,61.7,57.7,97,73,36,30.15,30.05,3,0,5,0.00
2014-5-12,92.1,73.9,57.2,71.2,62.7,56.3,99,73,34,30.19,30.10,3,0,6,0.00
2014-5-13,93.9,77.9,64.4,73.2,67.7,63.8,99,75,40,30.15,30.06,2,0,5,0.00
2014-5-14,89.5,77.6,66.7,72.4,67.5,64.1,97,73,48,30.17,30.05,5,0,10,0.00
2014-5-15,80.0,70.7,65.3,71.5,67.9,63.1,98,91,74,30.12,29.84,5,1,12,3.80
2014-5-16,74.4,64.9,55.6,69.6,57.7,50.2,99,80,44,30.02,29.81,6,1,10,0.53
2014-5-17,72.4,59.0,44.7,53.9,47.5,41.3,97,70,37,30.19,30.02,5,0,10,0.00
2014-5-18,69.5,58.6,49.0,54.1,50.1,44.8,97,76,47,30.24,30.18,4,0,6,0.00
2014-5-19,76.2,58.8,44.5,56.5,47.3,42.5,99,72,32,30.33,30.23,2,0,6,0.00
2014-5-20,80.8,65.4,48.7,59.8,55.0,47.6,98,72,46,30.29,30.09,6,0,9,0.00
2014-5-21,88.3,74.5,61.4,67.5,62.7,57.9,91,69,42,30.09,29.92,5,0,8,0.00
2014-5-22,89.6,76.3,63.7,69.5,65.2,62.2,96,71,43,29.94,29.85,3,0,15,0.00
2014-5-23,82.5,70.9,60.9,67.2,62.4,55.0,98,77,50,30.02,29.90,2,0,6,0.00
2014-5-24,81.3,65.4,49.8,59.4,53.5,48.7,97,69,37,30.14,30.00,5,0,7,0.00
2014-5-25,82.5,68.4,54.9,67.3,59.3,53.7,98,76,41,30.20,30.12,2,0,4,0.00
2014-5-26,88.0,73.6,59.9,69.5,63.9,59.0,98,74,47,30.21,30.06,6,0,10,0.00
2014-5-27,89.6,75.0,67.1,72.7,68.7,65.8,98,83,52,30.09,29.94,4,0,7,0.12
2014-5-28,91.4,76.6,64.8,77.1,69.8,64.5,100,82,47,30.01,29.92,2,0,6,0.01
2014-5-29,73.3,68.6,65.5,68.4,65.8,63.7,98,91,78,30.12,29.97,2,0,4,0.10
2014-5-30,72.8,67.7,62.4,68.5,65.7,61.8,99,93,84,30.15,30.05,2,0,4,0.01
2014-5-31,84.0,70.4,60.8,66.5,60.9,55.0,99,76,41,30.23,30.12,5,0,6,0.00
2014-6-1,80.4,65.2,51.0,57.6,53.8,50.1,99,71,38,30.36,30.23,4,0,6,0.00
2014-6-2,83.9,66.7,50.8,63.1,56.5,49.5,97,73,41,30.31,30.12,2,0,5,0.00
2014-6-3,88.3,70.9,56.8,74.5,64.2,55.9,98,82,50,30.13,29.93,4,0,10,0.06
2014-6-4,91.4,75.2,64.0,75.5,69.4,63.7,100,84,47,29.93,29.76,5,0,7,0.02
2014-6-5,90.0,80.4,70.5,75.3,70.9,66.8,92,74,48,29.85,29.70,4,0,10,0.00
2014-6-6,85.7,74.6,65.2,69.0,66.0,62.6,94,77,48,29.97,29.83,3,0,7,0.00
2014-6-7,86.6,72.1,60.3,69.1,64.6,59.7,99,80,47,30.05,29.95,3,0,5,0.00
2014-6-8,86.1,74.7,63.8,69.9,65.5,62.0,97,75,53,29.99,29.87,5,0,9,0.00
2014-6-9,89.5,77.1,68.6,76.5,70.1,62.9,97,80,60,29.92,29.85,3,0,4,0.23
2014-6-10,93.3,79.3,67.1,77.1,72.4,66.5,99,82,51,29.94,29.88,2,0,6,0.02
2014-6-11,93.6,76.8,68.1,77.6,70.3,67.3,99,83,49,29.97,29.84,4,0,14,0.71
2014-6-12,85.3,74.8,67.9,76.3,71.6,67.6,99,91,67,29.95,29.82,3,0,6,0.06
2014-6-13,86.9,74.3,66.8,74.8,70.3,66.5,99,89,63,29.87,29.78,2,0,7,0.10
2014-6-14,87.8,73.0,60.5,72.3,65.5,55.6,100,80,39,30.07,29.87,4,0,5,0.05
2014-6-15,88.5,72.9,59.8,71.2,65.9,57.7,98,81,52,30.19,30.07,2,0,6,0.00
2014-6-16,95.8,79.5,67.6,77.1,71.2,67.3,99,79,44,30.18,30.06,3,0,7,0.10
2014-6-17,94.5,77.1,69.1,76.5,71.6,68.6,99,85,51,30.15,30.05,4,0,4,0.00
2014-6-18,97.8,82.4,70.9,77.7,72.0,68.4,93,74,42,30.10,30.02,3,0,5,0.00
2014-6-19,97.3,81.0,71.8,79.5,71.3,65.7,93,75,41,30.08,29.97,3,0,7,0.00
2014-6-20,91.1,78.3,68.2,76.5,71.3,67.5,98,81,56,30.03,29.91,4,0,6,0.30
2014-6-21,91.2,77.7,67.9,78.5,72.9,67.6,99,87,56,29.94,29.79,2,0,5,0.19
2014-6-22,83.1,73.6,67.9,76.1,70.9,66.7,99,92,71,29.99,29.82,2,0,5,0.02
2014-6-23,86.7,73.7,62.9,71.7,66.4,62.6,99,80,49,30.14,29.99,3,0,6,0.00
2014-6-24,88.0,76.0,64.7,73.7,69.2,63.2,98,81,57,30.16,30.01,4,0,9,0.00
2014-6-25,90.9,78.9,71.9,76.8,73.4,70.8,98,85,59,30.03,29.87,3,0,8,0.04
2014-6-26,94.9,80.1,69.2,75.6,71.8,68.5,100,79,43,29.98,29.90,3,0,8,0.01
2014-6-27,87.1,75.8,69.6,80.0,72.4,68.9,99,90,68,30.13,29.98,3,0,6,0.19
2014-6-28,87.7,75.9,65.8,74.9,69.9,63.0,99,83,59,30.23,30.12,4,0,6,0.00
2014-6-29,88.1,71.5,57.6,68.9,62.5,57.0,99,77,43,30.25,30.12,3,0,5,0.00
2014-6-30,90.8,77.5,64.3,72.7,67.8,62.7,97,74,48,30.14,29.96,3,0,7,0.00
2014-7-1,92.3,80.8,71.2,76.0,71.5,67.1,88,74,54,30.00,29.88,5,0,8,0.00
2014-7-2,97.1,83.3,74.6,77.0,73.6,70.9,91,74,51,29.97,29.90,6,0,8,0.00
2014-7-3,89.8,79.2,73.5,78.1,74.6,70.7,97,87,65,30.01,29.86,4,0,8,0.54
2014-7-4,88.1,75.7,65.4,72.0,67.7,59.9,96,79,46,30.17,29.87,4,0,8,0.00
2014-7-5,87.0,70.4,57.1,62.0,56.9,51.1,96,67,30,30.29,30.18,4,0,10,0.00
2014-7-6,89.9,73.5,59.2,68.7,62.5,57.2,97,72,35,30.21,30.03,4,0,6,0.00
2014-7-7,92.9,79.6,67.5,74.4,68.3,63.8,97,71,41,30.06,29.91,5,0,9,0.00
2014-7-8,96.7,84.0,73.5,75.3,68.4,60.1,91,63,31,30.01,29.85,4,0,9,0.00
2014-7-9,93.3,80.7,72.6,75.1,71.0,66.0,95,74,53,30.03,29.91,7,0,11,0.00
2014-7-10,84.3,74.7,70.0,77.1,72.0,69.1,98,92,77,30.11,30.00,3,0,10,0.36
2014-7-11,89.0,75.9,68.4,74.7,70.9,68.1,99,86,57,30.20,30.10,2,0,4,0.01
2014-7-12,92.1,77.1,65.0,74.2,69.4,64.7,100,80,46,30.23,30.13,3,0,7,0.00
2014-7-13,94.3,81.2,70.0,76.0,71.1,67.4,99,75,44,30.15,29.99,3,0,11,0.00
2014-7-14,94.4,81.9,74.8,79.5,74.8,71.4,96,81,52,30.01,29.85,3,0,7,0.26
2014-7-15,92.2,77.6,69.5,79.5,73.9,67.8,99,89,60,29.88,29.73,4,0,10,2.82
2014-7-16,81.4,72.3,65.4,71.7,68.4,64.8,100,89,58,29.94,29.78,3,0,6,0.00
2014-7-17,86.6,71.0,58.0,69.8,63.6,57.7,100,81,46,30.11,29.93,2,0,4,0.00
2014-7-18,87.6,73.9,63.1,68.7,63.9,59.0,98,75,39,30.21,30.11,4,0,7,0.00
2014-7-19,83.6,71.8,64.6,69.5,64.9,61.9,95,81,50,30.18,30.09,3,0,6,0.00
2014-7-20,83.7,73.7,67.0,73.6,69.7,66.1,97,88,71,30.14,30.06,2,0,6,0.03
2014-7-21,78.2,74.3,71.0,76.0,73.2,70.6,99,97,91,30.16,30.06,1,0,4,0.21
2014-7-22,85.6,76.5,69.7,79.4,73.6,69.4,100,91,72,30.18,30.08,3,0,5,0.18
2014-7-23,93.4,80.4,70.1,78.9,74.3,69.8,100,84,55,30.10,29.90,2,0,5,0.00
2014-7-24,90.2,76.7,67.9,78.8,73.2,67.3,99,90,59,29.97,29.82,4,0,7,0.64
2014-7-25,84.6,73.8,66.4,73.2,68.9,66.1,100,87,57,30.07,29.96,3,0,5,0.00
2014-7-26,90.0,77.0,66.6,77.6,72.6,66.3,100,88,61,30.04,29.92,2,0,5,0.00
2014-7-27,84.6,76.3,70.5,77.5,73.6,69.9,99,92,76,29.98,29.75,4,0,8,0.26
2014-7-28,87.4,78.6,65.0,74.6,68.3,62.9,94,72,49,29.87,29.70,4,0,9,0.00
2014-7-29,84.2,70.5,59.5,68.3,62.7,58.8,99,79,45,30.00,29.86,3,0,5,0.00
2014-7-30,81.4,70.3,62.4,72.0,65.6,61.0,98,86,65,30.10,29.99,4,0,6,0.01
2014-7-31,82.7,73.1,63.8,73.9,69.4,63.5,100,89,66,30.16,30.08,2,0,5,0.02
2014-8-1,75.5,69.1,64.1,72.2,67.9,63.2,99,96,83,30.16,30.07,3,0,7,0.81
2014-8-2,69.9,67.3,64.5,69.6,66.8,64.2,100,98,96,30.14,30.07,2,0,4,1.68
2014-8-3,80.1,71.1,67.3,72.6,69.2,67.0,100,94,76,30.15,30.05,3,0,4,0.01
2014-8-4,85.4,74.4,67.5,74.1,70.4,67.2,100,89,63,30.12,30.03,2,0,4,0.00
2014-8-5,89.6,76.2,66.7,75.7,70.7,66.4,100,85,54,30.07,29.96,2,0,4,0.01
2014-8-6,90.6,77.9,68.3,76.5,70.7,66.1,99,81,48,29.99,29.90,5,0,7,0.00
2014-8-7,87.0,75.4,66.6,75.6,70.3,66.1,99,86,61,30.03,29.92,2,0,6,0.00
2014-8-8,82.3,73.2,66.0,73.3,69.6,65.7,100,89,66,30.13,30.02,2,0,4,0.00
2014-8-9,71.7,67.2,63.9,70.0,66.3,62.8,99,97,92,30.14,30.06,2,0,5,0.30
2014-8-10,81.6,72.8,65.4,72.9,69.1,65.1,99,89,71,30.13,30.05,5,0,6,0.38
2014-8-11,85.1,74.5,69.4,75.3,70.7,67.9,98,89,66,30.09,29.97,5,0,6,0.05
2014-8-12,87.5,75.3,69.1,78.0,72.4,68.5,99,92,70,29.98,29.77,4,0,8,0.49
2014-8-13,82.2,73.2,63.6,72.0,68.2,63.0,100,86,55,29.97,29.80,5,0,8,0.01
2014-8-14,84.6,69.7,56.9,68.4,62.1,56.7,100,80,43,30.06,29.95,3,0,4,0.00
2014-8-15,86.8,72.7,60.5,73.9,66.6,60.2,100,84,53,30.05,29.95,2,0,5,0.00
2014-8-16,91.0,76.6,66.6,75.4,69.9,65.7,99,82,50,30.04,29.96,3,0,3,0.00
2014-8-17,90.3,77.2,69.0,76.2,71.4,68.0,100,84,52,30.01,29.94,4,0,4,0.00
2014-8-18,85.1,76.2,71.2,77.8,73.6,70.3,99,92,71,29.95,29.78,1,0,4,0.44
2014-8-19,90.2,76.3,70.0,77.9,73.3,69.8,100,92,61,29.89,29.77,3,0,4,0.01
2014-8-20,90.4,76.4,69.4,77.9,73.3,69.1,100,91,62,30.02,29.87,2,0,5,0.18
2014-8-21,92.2,78.9,68.7,79.2,73.7,68.5,100,86,55,30.07,29.97,2,0,5,0.02
2014-8-22,89.4,78.5,69.9,79.3,74.5,69.6,100,89,62,30.02,29.94,2,0,8,0.00
2014-8-23,85.2,77.0,71.1,77.5,73.9,69.8,99,91,75,30.00,29.91,5,0,6,0.02
2014-8-24,81.4,73.2,63.3,70.7,67.9,61.8,98,85,64,30.12,29.98,3,0,10,0.00
2014-8-25,79.7,68.2,56.0,69.2,63.5,55.7,100,86,64,30.14,30.09,5,0,7,0.00
2014-8-26,83.3,69.2,55.1,69.5,63.7,54.8,100,85,56,30.17,30.08,3,0,7,0.01
2014-8-27,88.6,70.8,55.8,71.8,64.1,55.5,100,83,44,30.09,29.96,3,0,5,0.00
2014-8-28,92.9,76.4,63.6,79.5,71.1,62.7,99,85,58,30.01,29.94,2,0,4,0.00
2014-8-29,82.4,75.8,71.4,75.1,72.2,68.6,98,89,75,30.18,30.01,4,0,5,0.00
2014-8-30,90.3,78.0,69.4,77.4,72.8,68.2,97,85,61,30.23,30.11,3,0,6,0.00
2014-8-31,91.5,79.6,71.7,77.0,74.2,71.4,99,85,59,30.19,30.04,4,0,7,0.00
2014-9-1,92.7,80.7,72.6,80.0,74.9,71.1,99,85,51,30.10,30.01,2,0,4,0.00
2014-9-2,96.1,81.7,71.2,77.8,73.3,70.4,98,79,46,30.06,29.92,7,0,11,0.00
2014-9-3,93.3,80.3,70.5,79.6,73.5,69.9,99,82,53,30.12,29.96,5,0,9,0.00
2014-9-4,86.5,75.4,69.1,77.9,72.9,68.6,99,93,72,30.21,30.09,3,0,7,0.89
2014-9-5,92.2,78.0,70.1,79.8,73.8,69.9,100,89,56,30.20,30.07,3,0,5,0.03
2014-9-6,90.5,78.3,70.7,77.3,73.9,70.4,100,88,60,30.09,29.93,2,0,7,0.00
2014-9-7,78.5,74.0,70.8,73.9,71.3,67.8,99,92,82,30.11,29.96,3,0,7,0.00
2014-9-8,72.8,69.6,68.1,71.9,68.8,67.1,99,98,90,30.12,30.03,7,0,8,1.19
2014-9-9,76.3,69.7,66.2,72.4,68.7,65.9,100,97,86,30.12,30.04,5,0,6,0.14
2014-9-10,81.8,71.9,65.1,74.0,69.3,65.0,100,92,71,30.14,30.04,1,0,2,0.00
2014-9-11,89.0,76.4,65.8,77.7,72.5,65.5,100,89,68,30.05,29.93,4,0,7,0.30
2014-9-12,81.3,74.3,70.5,73.6,71.2,68.0,100,91,72,30.11,29.96,3,0,5,0.00
2014-9-13,79.2,71.7,68.7,75.3,70.1,66.9,98,95,87,30.18,30.05,2,0,6,0.00
2014-9-14,71.3,65.0,59.6,66.9,60.8,57.3,98,87,71,30.28,30.18,6,0,7,0.00
2014-9-15,75.0,67.2,62.1,68.4,64.4,60.9,98,92,74,30.25,30.10,2,0,6,0.00
2014-9-16,84.8,73.3,66.5,71.7,68.1,65.0,99,86,56,30.10,29.94,4,0,4,0.02
2014-9-17,79.5,70.6,64.7,69.8,66.7,64.0,99,88,69,30.00,29.92,3,0,7,0.00
2014-9-18,81.2,68.6,57.5,68.9,63.6,57.2,100,86,55,30.07,29.94,3,0,5,0.01
2014-9-19,79.9,68.2,60.5,67.3,63.2,59.9,99,86,59,30.25,30.07,6,0,8,0.00
2014-9-20,82.3,67.9,57.3,68.5,62.4,57.0,100,85,54,30.25,30.00,3,0,7,0.00
2014-9-21,87.2,72.4,61.8,71.0,66.2,61.5,99,83,54,30.00,29.78,2,0,7,0.00
2014-9-22,76.0,67.5,59.3,69.0,60.9,54.5,97,82,49,30.16,29.85,4,0,8,0.00
2014-9-23,63.6,59.6,55.4,59.4,54.5,49.7,98,84,72,30.35,30.15,5,0,6,0.03
2014-9-24,63.6,59.2,54.5,63.3,58.7,53.6,99,98,95,30.33,30.23,5,0,9,2.50
2014-9-25,68.9,64.9,63.0,66.3,63.9,62.7,99,97,88,30.27,30.18,2,0,6,0.03
2014-9-26,78.2,66.7,59.5,67.1,63.7,59.0,99,91,64,30.23,30.16,3,0,8,0.03
2014-9-27,78.2,63.9,54.1,66.4,60.2,53.8,100,90,61,30.24,30.17,3,0,6,0.01
2014-9-28,79.2,64.6,51.9,68.5,61.0,51.6,100,90,63,30.21,30.08,1,0,3,0.00
2014-9-29,70.8,65.3,62.1,67.5,64.2,61.8,99,97,86,30.08,29.96,1,0,3,0.07
2014-9-30,79.2,65.8,59.1,69.0,64.1,58.8,100,95,69,29.97,29.87,2,0,3,0.01
2014-10-1,79.7,65.3,55.9,70.6,63.0,55.7,100,93,70,30.05,29.93,2,0,3,0.00
2014-10-2,80.3,68.3,58.6,73.6,65.8,58.3,100,93,69,30.13,30.04,1,0,3,0.01
2014-10-3,82.3,72.6,64.9,70.4,67.9,64.6,99,86,63,30.08,29.76,5,0,8,0.08
2014-10-4,73.0,64.7,45.3,70.1,56.7,40.8,99,78,38,29.91,29.67,4,0,12,0.00
2014-10-5,65.8,50.4,37.9,49.5,42.7,37.3,99,79,43,30.05,29.87,3,0,6,0.00
2014-10-6,74.6,58.3,45.3,56.4,49.7,44.2,98,76,46,30.11,30.02,4,0,10,0.00
2014-10-7,78.6,65.8,53.2,62.8,57.4,52.0,98,76,52,30.15,29.99,5,0,9,0.00
2014-10-8,83.8,68.7,57.5,69.5,63.3,56.6,99,85,55,30.05,29.93,2,0,6,0.00
2014-10-9,79.8,62.6,49.0,62.0,54.5,48.4,99,79,43,30.19,30.05,2,0,5,0.00
2014-10-10,82.0,69.4,57.0,70.4,63.7,55.8,98,83,64,30.12,29.98,4,0,7,1.01
2014-10-11,84.4,68.8,58.2,75.0,66.5,57.3,99,93,71,30.13,29.93,4,0,13,0.49
2014-10-12,60.8,58.9,56.6,60.5,58.3,56.1,99,98,96,30.25,30.11,5,0,6,0.05
2014-10-13,79.8,68.3,57.9,71.8,65.5,57.6,100,92,73,30.27,30.15,2,0,4,0.01
2014-10-14,77.6,73.9,69.7,74.5,71.7,69.1,98,93,85,30.16,29.90,5,1,11,0.07
2014-10-15,74.8,65.2,58.8,72.4,64.0,58.5,99,96,91,29.90,29.81,5,0,12,2.15
2014-10-16,71.2,59.9,52.4,61.0,56.7,52.1,100,91,62,29.85,29.77,3,0,5,0.01
2014-10-17,73.9,59.1,48.1,60.2,54.5,48.0,100,87,55,29.93,29.81,3,0,7,0.01
2014-10-18,73.8,60.5,50.1,59.9,53.7,47.9,100,81,50,29.92,29.76,5,0,12,0.01
2014-10-19,65.4,52.7,43.8,50.9,46.6,43.2,99,82,45,30.14,29.92,5,0,9,0.00
2014-10-20,69.0,55.9,41.6,54.7,48.9,41.3,99,80,48,30.18,29.99,3,0,6,0.01
2014-10-21,73.8,60.1,49.1,58.7,53.5,45.6,99,81,51,29.99,29.83,5,0,10,0.00
2014-10-22,65.4,54.8,46.5,51.4,47.4,44.6,95,78,54,30.03,29.92,8,0,12,0.00
2014-10-23,69.0,52.8,42.9,52.1,46.6,42.2,98,82,50,30.04,29.92,4,0,11,0.00
2014-10-24,71.4,53.0,41.2,58.0,47.7,40.6,99,85,47,30.08,29.96,2,0,3,0.00
2014-10-25,69.9,53.7,39.8,54.2,47.0,39.5,99,81,46,30.05,29.87,2,0,4,0.01
2014-10-26,75.0,59.9,45.5,58.9,49.0,41.9,94,71,35,29.98,29.80,5,0,8,0.00
2014-10-27,75.1,54.7,38.7,52.9,44.8,38.1,99,74,32,30.15,29.98,1,0,3,0.00
2014-10-28,83.0,65.2,52.0,66.4,58.0,46.8,98,80,50,30.16,30.03,3,0,5,0.00
2014-10-29,77.6,65.3,56.7,64.3,60.4,56.0,98,85,58,30.03,29.90,2,0,8,0.22
2014-10-30,67.3,54.8,46.5,56.1,49.9,44.8,99,86,46,30.07,29.98,2,0,5,0.01
2014-10-31,62.8,49.4,40.0,49.3,45.1,39.6,99,87,55,30.02,29.78,4,0,5,0.00
2014-11-1,50.4,46.8,41.6,48.0,44.8,40.2,98,93,83,29.94,29.71,4,0,15,0.33
2014-11-2,52.9,42.7,31.0,40.5,32.5,28.5,94,69,42,30.33,29.94,6,1,16,0.00
2014-11-3,63.5,43.9,29.3,40.3,33.2,26.6,98,71,25,30.44,30.31,2,0,6,0.00
2014-11-4,66.8,53.7,40.4,44.1,40.6,36.6,92,64,37,30.36,30.24,2,0,7,0.00
2014-11-5,69.2,58.2,48.6,55.3,49.1,39.5,93,73,55,30.30,30.14,1,0,6,0.00
2014-11-6,66.5,60.3,46.4,64.1,58.2,45.5,98,93,86,30.14,29.72,3,0,10,0.00
2014-11-7,60.3,46.6,36.2,47.3,40.7,34.6,99,83,48,30.08,29.85,4,0,12,0.01
2014-11-8,57.6,41.4,30.4,45.1,37.2,29.9,99,86,53,30.13,29.98,3,0,5,0.00
2014-11-9,61.2,49.0,39.3,48.9,44.3,38.7,98,86,54,30.06,29.94,2,0,3,0.00
2014-11-10,65.3,48.6,36.7,50.2,43.1,36.4,99,84,51,30.17,30.05,4,0,8,0.00
2014-11-11,70.5,55.1,41.3,63.5,52.6,41.0,99,92,72,30.08,29.92,2,0,6,0.00
2014-11-12,75.7,60.2,50.1,59.0,53.0,44.4,100,80,48,30.05,29.91,4,0,6,0.00
2014-11-13,57.4,49.8,44.5,48.9,40.7,38.2,81,71,57,30.10,30.00,2,0,6,0.00
2014-11-14,44.4,36.8,26.8,39.0,29.5,21.0,96,76,47,30.36,30.06,2,0,7,0.01
2014-11-15,45.1,31.9,21.4,26.4,22.2,18.7,93,70,38,30.49,30.35,2,0,5,0.00
2014-11-16,49.6,39.9,27.6,42.4,33.5,24.3,98,79,51,30.43,30.09,0,0,4,0.04
2014-11-17,66.3,52.2,42.6,65.2,51.1,37.3,100,96,78,30.09,29.61,3,0,12,0.50
2014-11-18,42.5,32.1,20.5,37.2,20.4,12.5,86,64,39,30.36,29.88,2,0,11,0.00
2014-11-19,41.3,30.4,17.1,21.5,16.8,12.3,94,61,32,30.46,30.24,2,0,9,0.00
2014-11-20,57.7,43.0,31.0,33.3,27.2,20.4,89,55,36,30.25,30.02,3,0,16,0.00
2014-11-21,46.6,34.8,26.9,31.5,22.6,15.9,93,65,30,30.58,30.16,2,0,9,0.00
2014-11-22,53.2,36.4,21.7,28.1,21.0,16.9,92,58,25,30.62,30.35,2,0,6,0.00
2014-11-23,64.6,49.4,33.8,64.0,45.5,25.7,99,87,71,30.35,29.76,3,0,16,0.56
2014-11-24,72.6,66.1,60.8,65.3,62.7,59.9,98,89,73,29.91,29.75,4,1,15,0.01
2014-11-25,64.9,57.7,48.5,63.1,52.9,43.4,98,85,63,30.13,29.89,2,0,9,0.05
2014-11-26,50.4,44.4,36.0,49.9,43.9,35.7,99,98,97,30.09,29.87,3,1,11,1.58
2014-11-27,45.4,40.4,31.7,43.6,39.5,30.2,99,97,87,30.27,30.02,1,0,6,0.18
2014-11-28,43.3,33.1,25.6,31.9,28.1,25.0,98,83,51,30.40,30.27,2,0,9,0.00
2014-11-29,53.8,39.6,27.7,34.0,30.9,26.7,97,73,42,30.38,30.26,2,0,10,0.00
2014-11-30,65.3,50.6,36.3,49.5,42.4,33.5,94,75,52,30.33,30.22,3,0,15,0.00
2014-12-1,72.4,57.8,46.4,54.5,49.8,44.4,93,77,48,30.37,30.26,1,0,5,0.00
2014-12-2,54.9,48.6,44.8,52.5,45.8,42.0,98,90,76,30.48,30.32,2,0,7,0.00
2014-12-3,57.8,49.8,43.8,54.9,49.0,43.3,99,97,90,30.35,30.17,2,0,8,0.00
2014-12-4,53.1,46.9,41.2,48.2,40.1,36.6,99,79,55,30.46,30.29,1,0,5,0.00
2014-12-5,53.4,47.0,40.4,45.1,41.1,36.7,92,80,66,30.51,30.36,1,0,3,0.00
2014-12-6,55.2,51.0,45.3,54.9,49.7,43.1,99,95,88,30.36,30.06,5,0,11,0.16
2014-12-7,51.4,43.8,31.6,49.7,34.0,25.2,94,70,47,30.48,30.13,5,2,15,0.00
2014-12-8,44.4,39.5,30.3,37.6,32.5,25.6,97,76,62,30.47,30.17,3,1,7,0.11
2014-12-9,44.2,40.1,35.3,43.5,39.6,34.7,99,98,96,30.17,29.92,1,0,7,0.67
2014-12-10,52.0,40.6,31.5,41.7,34.1,27.7,99,80,48,30.01,29.92,3,0,10,0.00
2014-12-11,48.0,35.6,28.3,28.5,26.1,20.7,90,71,38,30.14,29.98,3,0,12,0.00
2014-12-12,55.9,39.3,26.9,27.1,23.6,20.4,84,56,27,30.24,30.11,2,0,9,0.00
2014-12-13,59.7,42.0,29.2,34.0,28.8,23.2,86,62,33,30.16,30.03,1,0,6,0.00
2014-12-14,57.5,40.9,29.1,39.3,34.0,27.3,95,78,49,30.10,30.01,2,0,5,0.00
2014-12-15,59.5,43.4,30.2,43.9,38.3,29.7,99,84,54,30.17,30.06,1,0,7,0.00
2014-12-16,50.6,46.3,41.1,49.7,44.9,39.2,99,95,84,30.11,29.91,2,0,11,0.25
2014-12-17,42.5,40.6,39.1,42.2,40.3,38.8,99,99,99,30.07,29.99,0,0,2,0.00
2014-12-19,51.9,41.6,32.1,35.4,31.8,29.3,94,70,43,30.24,30.14,1,0,5,0.00
2014-12-20,38.7,36.0,33.6,36.4,32.7,28.3,95,88,78,30.34,30.24,0,0,4,0.05
2014-12-21,49.8,40.7,33.9,39.6,36.2,33.0,98,85,66,30.36,30.25,1,0,5,0.00
2014-12-22,40.1,37.8,36.1,38.2,36.6,34.3,99,96,81,30.25,30.07,2,0,8,0.32
2014-12-23,47.1,41.4,37.4,46.8,41.1,37.1,99,99,99,30.12,29.97,1,0,3,0.49
2014-12-24,65.5,56.6,47.2,65.2,56.2,46.9,100,99,94,29.97,29.67,3,1,13,1.26
2014-12-25,65.3,51.7,34.4,63.8,44.4,33.4,98,78,48,30.27,29.68,3,1,10,0.10
2014-12-26,58.4,40.8,29.6,43.7,35.6,29.1,99,84,46,30.39,30.26,2,0,7,0.00
2014-12-27,63.1,47.2,31.7,43.9,38.9,30.7,99,76,43,30.37,30.18,2,0,8,0.00
2014-12-28,62.2,56.4,50.3,57.9,52.4,42.4,99,87,71,30.19,30.00,3,0,12,0.00
2014-12-29,55.3,48.5,40.4,55.0,48.0,39.9,99,98,97,30.23,30.05,2,0,6,0.67
2014-12-30,40.9,36.4,27.2,39.9,35.3,26.8,99,96,84,30.47,30.21,2,0,7,0.09
2014-12-31,45.4,32.7,26.2,33.3,27.5,22.7,99,84,42,30.50,30.38,1,0,6,0.00
2015-1-1,51.3,37.3,24.2,37.6,29.4,23.2,97,76,42,30.38,30.23,2,0,9,0.00
2015-1-2,54.6,48.1,42.3,45.5,41.3,37.4,91,78,62,30.40,30.23,1,0,4,0.00